Plock, Poland
Current Conditions -  °F | °C
As of 9:00 AM on Thursday 27 Nov 2014 (Local Time) from EPMO Reporting Station
Haze Haze  
Wind Chill: 26°   Ceiling: 700
Heat Index: 32°   Visibility: 2mi
Dew Point: 30°   Wind: 7mph
Humidity: 93%   Direction: 110°ESE
Pressure: 30.24"   Gusts: NA
Location:  52.55°N, 19.7°E
Report Text: EPMO 270700Z 11006KT 3300 BR OVC007 M00/M01 Q1024
Loading
Personal Weather Stations






























Interactive Weather Map New forecast layout! Learn more

10-Day Weather Forecast

Advertisements
Track Severe Weather on mobile